createdAt,value
2019-05-26T00:03:37.402Z,10.8
2019-05-26T00:09:04.880Z,10.8
2019-05-26T00:14:32.568Z,10.8
2019-05-26T00:19:58.777Z,10.8
2019-05-26T00:25:26.248Z,10.8
2019-05-26T00:30:53.800Z,10.8
2019-05-26T00:36:21.350Z,10.8
2019-05-26T00:41:48.696Z,10.8
2019-05-26T00:47:16.820Z,10.8
2019-05-26T00:52:42.770Z,10.8
2019-05-26T00:58:09.075Z,10.7
2019-05-26T01:03:36.536Z,10.7
2019-05-26T01:09:04.031Z,10.7
2019-05-26T01:14:31.516Z,10.7
2019-05-26T01:25:26.400Z,10.7
2019-05-26T01:30:53.855Z,10.7
2019-05-26T01:36:21.550Z,10.7
2019-05-26T01:41:47.763Z,10.7
2019-05-26T01:47:15.286Z,10.7
2019-05-26T01:52:41.740Z,10.7
2019-05-26T01:58:09.167Z,10.7
2019-05-26T02:03:35.579Z,10.6
2019-05-26T02:09:02.011Z,10.6
2019-05-26T02:14:28.435Z,10.6
2019-05-26T02:19:55.905Z,10.6
2019-05-26T02:25:22.358Z,10.5
2019-05-26T02:30:49.714Z,10.5
2019-05-26T02:36:16.137Z,10.4
2019-05-26T02:41:42.775Z,10.4
2019-05-26T02:47:09.986Z,10.4
2019-05-26T02:52:36.522Z,10.3
2019-05-26T03:03:30.290Z,10.4
2019-05-26T03:09:20.838Z,10.4
2019-05-26T03:14:23.027Z,10.3
2019-05-26T03:19:49.425Z,10.3
2019-05-26T03:25:16.797Z,10.4
2019-05-26T03:30:44.214Z,10.4
2019-05-26T03:36:11.608Z,10.4
2019-05-26T03:41:38.027Z,10.4
2019-05-26T03:47:05.455Z,10.4
2019-05-26T03:52:32.846Z,10.4
2019-05-26T03:57:59.221Z,10.4
2019-05-26T04:03:26.675Z,10.4
2019-05-26T04:08:53.041Z,10.4
2019-05-26T04:14:20.888Z,10.4
2019-05-26T04:19:49.673Z,10.4
2019-05-26T04:25:15.244Z,10.4
2019-05-26T04:30:42.925Z,10.4
2019-05-26T04:36:09.037Z,10.5
2019-05-26T04:41:35.468Z,10.5
2019-05-26T04:47:03.894Z,10.5
2019-05-26T04:52:30.236Z,10.5
2019-05-26T04:57:57.754Z,10.6
2019-05-26T05:03:25.068Z,10.6
2019-05-26T05:08:51.738Z,10.6
2019-05-26T05:14:17.841Z,10.7
2019-05-26T05:19:44.276Z,10.7
2019-05-26T05:25:14.855Z,10.8
2019-05-26T05:30:39.193Z,10.8
2019-05-26T05:36:05.642Z,10.8
2019-05-26T05:41:32.999Z,10.9
2019-05-26T05:46:59.416Z,10.9
2019-05-26T05:52:26.913Z,10.9
2019-05-26T05:57:54.355Z,11
2019-05-26T06:03:20.675Z,11
2019-05-26T06:08:47.150Z,11
2019-05-26T06:14:14.607Z,11
2019-05-26T06:19:41.062Z,11
2019-05-26T06:25:07.791Z,11
2019-05-26T06:30:33.853Z,11
2019-05-26T06:36:01.443Z,11
2019-05-26T06:41:33.248Z,11
2019-05-26T06:46:55.154Z,11.1
2019-05-26T06:52:21.694Z,11.1
2019-05-26T06:57:49.166Z,11.2
2019-05-26T07:03:14.503Z,11.2
2019-05-26T07:08:40.939Z,11.2
2019-05-26T07:14:08.550Z,11.2
2019-05-26T07:19:34.963Z,11.2
2019-05-26T07:25:02.503Z,11.3
2019-05-26T07:30:28.727Z,11.3
2019-05-26T07:35:55.115Z,11.3
2019-05-26T07:46:49.068Z,11.4
2019-05-26T07:52:16.726Z,11.4
2019-05-26T07:57:42.874Z,11.5
2019-05-26T08:03:09.382Z,11.5
2019-05-26T08:08:35.861Z,11.6
2019-05-26T08:14:02.348Z,11.6
2019-05-26T08:19:29.818Z,11.6
2019-05-26T08:24:57.792Z,11.7
2019-05-26T08:30:24.847Z,11.8
2019-05-26T08:35:52.400Z,11.9
2019-05-26T08:41:18.758Z,11.9
2019-05-26T08:46:46.166Z,12
2019-05-26T08:52:13.705Z,12
2019-05-26T08:57:40.242Z,12.1
2019-05-26T09:03:06.692Z,12.1
2019-05-26T09:08:34.243Z,12.2
2019-05-26T09:14:00.814Z,12.3
2019-05-26T09:19:27.330Z,12.4
2019-05-26T09:24:53.987Z,12.4
2019-05-26T09:30:21.438Z,12.4
2019-05-26T09:35:47.847Z,12.4
2019-05-26T09:41:14.429Z,12.4
2019-05-26T09:46:41.439Z,12.5
2019-05-26T09:52:08.519Z,12.6
2019-05-26T09:57:36.421Z,12.6
2019-05-26T10:03:03.546Z,12.6
2019-05-26T10:08:30.659Z,12.5
2019-05-26T10:13:56.617Z,12.6
2019-05-26T10:19:23.194Z,12.6
2019-05-26T10:24:49.705Z,12.7
2019-05-26T10:30:17.170Z,12.8
2019-05-26T10:35:43.795Z,12.8
2019-05-26T10:41:11.547Z,12.8
2019-05-26T10:46:38.994Z,12.9
2019-05-26T10:52:06.597Z,12.9
2019-05-26T10:57:39.781Z,12.9
2019-05-26T11:03:04.512Z,12.9
2019-05-26T11:08:27.198Z,12.9
2019-05-26T11:14:02.117Z,12.9
2019-05-26T11:19:20.230Z,12.8
2019-05-26T11:24:46.831Z,12.8
2019-05-26T11:30:14.411Z,12.8
2019-05-26T11:35:41.963Z,12.8
2019-05-26T11:41:16.191Z,12.9
2019-05-26T11:46:36.022Z,12.9
2019-05-26T11:52:03.596Z,12.9
2019-05-26T11:57:31.767Z,12.8
2019-05-26T12:03:00.520Z,12.8
2019-05-26T12:08:25.224Z,12.9
2019-05-26T12:13:52.064Z,12.9
2019-05-26T12:19:18.330Z,13
2019-05-26T12:24:45.753Z,13
2019-05-26T12:30:13.310Z,13
2019-05-26T12:35:41.038Z,13
2019-05-26T12:41:08.389Z,13
2019-05-26T12:46:35.083Z,13
2019-05-26T12:52:02.538Z,13
2019-05-26T12:57:29.084Z,13.1
2019-05-26T13:03:04.775Z,13.1
2019-05-26T13:08:23.194Z,13.1
2019-05-26T13:13:51.015Z,13.1
2019-05-26T13:19:17.339Z,13.1
2019-05-26T13:24:44.818Z,13.1
2019-05-26T13:30:11.453Z,13.1
2019-05-26T13:35:37.903Z,13.1
2019-05-26T13:41:04.455Z,13.1
2019-05-26T13:46:30.969Z,13.1
2019-05-26T13:51:58.677Z,13.1
2019-05-26T13:57:25.021Z,13
2019-05-26T14:02:51.806Z,13
2019-05-26T14:08:18.213Z,12.9
2019-05-26T14:13:45.718Z,12.9
2019-05-26T14:19:12.198Z,12.8
2019-05-26T14:24:52.730Z,12.8
2019-05-26T14:30:06.267Z,12.7
2019-05-26T14:35:33.817Z,12.7
2019-05-26T14:41:01.161Z,12.8
2019-05-26T14:46:28.676Z,12.8
2019-05-26T14:51:55.227Z,12.8
2019-05-26T14:57:22.714Z,12.9
2019-05-26T15:02:58.218Z,12.9
2019-05-26T15:08:16.713Z,12.9
2019-05-26T15:13:51.054Z,12.9
2019-05-26T15:19:09.870Z,12.9
2019-05-26T15:24:37.343Z,13
2019-05-26T15:30:03.820Z,13
2019-05-26T15:35:31.527Z,13
2019-05-26T15:40:57.838Z,13
2019-05-26T15:46:25.885Z,13
2019-05-26T15:51:51.891Z,13
2019-05-26T15:57:18.363Z,13
2019-05-26T16:02:45.265Z,13
2019-05-26T16:08:24.054Z,13
2019-05-26T16:13:38.842Z,12.9
2019-05-26T16:19:06.411Z,12.9
2019-05-26T16:24:32.835Z,12.9
2019-05-26T16:30:00.465Z,12.9
2019-05-26T16:35:27.799Z,12.9
2019-05-26T16:40:55.286Z,12.9
2019-05-26T16:46:21.752Z,12.9
2019-05-26T16:51:48.252Z,12.9
2019-05-26T16:57:22.865Z,12.9
2019-05-26T17:02:42.224Z,12.9
2019-05-26T17:08:09.689Z,12.9
2019-05-26T17:13:37.117Z,12.9
2019-05-26T17:19:04.574Z,12.9
2019-05-26T17:24:31.481Z,12.9
2019-05-26T17:29:57.529Z,13
2019-05-26T17:35:24.083Z,13
2019-05-26T17:40:51.477Z,13
2019-05-26T17:46:18.951Z,13
2019-05-26T17:51:52.476Z,13
2019-05-26T17:57:12.979Z,13
2019-05-26T18:02:39.385Z,12.9
2019-05-26T18:08:05.872Z,12.9
2019-05-26T18:13:32.450Z,12.9
2019-05-26T18:18:58.770Z,12.9
2019-05-26T18:24:26.698Z,12.9
2019-05-26T18:29:52.681Z,12.9
2019-05-26T18:35:19.293Z,12.9
2019-05-26T18:40:45.744Z,12.9
2019-05-26T18:46:12.158Z,12.9
2019-05-26T18:51:38.666Z,12.9
2019-05-26T18:57:05.015Z,12.9
2019-05-26T19:02:31.608Z,12.9
2019-05-26T19:07:59.083Z,12.9
2019-05-26T19:13:26.452Z,12.9
2019-05-26T19:18:53.924Z,12.9
2019-05-26T19:24:21.452Z,12.9
2019-05-26T19:29:47.775Z,12.9
2019-05-26T19:35:14.253Z,12.9
2019-05-26T19:40:40.763Z,12.9
2019-05-26T19:46:07.112Z,12.9
2019-05-26T19:51:34.630Z,12.9
2019-05-26T19:57:01.946Z,12.9
2019-05-26T20:02:29.503Z,12.9
2019-05-26T20:07:57.193Z,12.8
2019-05-26T20:13:24.239Z,12.8
2019-05-26T20:18:50.824Z,12.8
2019-05-26T20:24:17.072Z,12.8
2019-05-26T20:29:43.718Z,12.8
2019-05-26T20:35:11.008Z,12.8
2019-05-26T20:40:38.840Z,12.8
2019-05-26T20:46:04.993Z,12.8
2019-05-26T20:51:31.167Z,12.8
2019-05-26T20:56:57.771Z,12.8
2019-05-26T21:02:24.977Z,12.8
2019-05-26T21:07:51.484Z,12.8
2019-05-26T21:13:20.323Z,12.8
2019-05-26T21:18:45.238Z,12.8
2019-05-26T21:24:12.677Z,12.8
2019-05-26T21:29:40.333Z,12.7
2019-05-26T21:35:07.545Z,12.7
2019-05-26T21:40:34.989Z,12.7
2019-05-26T21:46:01.282Z,12.7
2019-05-26T21:51:27.750Z,12.7
2019-05-26T21:56:55.014Z,12.7
2019-05-26T22:02:21.969Z,12.7
2019-05-26T22:07:49.007Z,12.7
2019-05-26T22:13:16.290Z,12.7
2019-05-26T22:18:43.632Z,12.6
2019-05-26T22:24:09.973Z,12.6
2019-05-26T22:29:36.481Z,12.6
2019-05-26T22:35:02.836Z,12.6
2019-05-26T22:40:30.271Z,12.6
2019-05-26T22:45:57.446Z,12.6
2019-05-26T22:51:23.889Z,12.6
2019-05-26T22:56:50.607Z,12.6
2019-05-26T23:02:18.089Z,12.6
2019-05-26T23:07:45.045Z,12.6
2019-05-26T23:13:12.921Z,12.6
2019-05-26T23:18:38.692Z,12.6
2019-05-26T23:24:05.136Z,12.5
2019-05-26T23:29:32.002Z,12.5
2019-05-26T23:34:58.845Z,12.5
2019-05-26T23:40:25.144Z,12.5
2019-05-26T23:45:52.554Z,12.4
2019-05-26T23:51:18.868Z,12.4
2019-05-26T23:56:46.145Z,12.4
